createdAt,value
2019-01-21T00:01:37.778Z,27.93
2019-01-21T00:04:10.200Z,28.50
2019-01-21T00:06:40.558Z,31.10
2019-01-21T00:09:11.644Z,35.07
2019-01-21T00:11:50.194Z,29.90
2019-01-21T00:14:21.591Z,30.57
2019-01-21T00:16:51.901Z,31.97
2019-01-21T00:19:22.352Z,28.13
2019-01-21T00:21:52.784Z,28.23
2019-01-21T00:24:24.414Z,27.97
2019-01-21T00:26:54.806Z,27.90
2019-01-21T00:29:25.241Z,31.77
2019-01-21T00:31:55.755Z,29.23
2019-01-21T00:34:26.127Z,27.20
2019-01-21T00:37:03.290Z,30.23
2019-01-21T00:39:26.939Z,30.80
2019-01-21T00:41:57.611Z,30.03
2019-01-21T00:44:28.062Z,29.43
2019-01-21T00:46:58.495Z,31.77
2019-01-21T00:49:33.990Z,26.77
2019-01-21T00:52:04.413Z,29.33
2019-01-21T00:54:34.729Z,29.67
2019-01-21T00:57:05.288Z,26.70
2019-01-21T00:59:37.460Z,30.07
2019-01-21T01:02:08.614Z,29.70
2019-01-21T01:04:38.985Z,30.30
2019-01-21T01:07:09.368Z,30.67
2019-01-21T01:09:39.809Z,27.70
2019-01-21T01:12:10.406Z,30.13
2019-01-21T01:14:41.557Z,27.87
2019-01-21T01:17:12.781Z,28.80
2019-01-21T01:19:43.153Z,30.00
2019-01-21T01:22:13.540Z,33.40
2019-01-21T01:24:43.981Z,29.73
2019-01-21T01:27:15.185Z,33.17
2019-01-21T01:29:45.761Z,28.87
2019-01-21T01:32:17.089Z,30.33
2019-01-21T01:34:47.549Z,28.70
2019-01-21T01:37:18.180Z,30.53
2019-01-21T01:39:48.798Z,29.87
2019-01-21T01:42:20.248Z,32.53
2019-01-21T01:44:50.637Z,29.93
2019-01-21T01:47:22.224Z,31.33
2019-01-21T01:49:54.475Z,30.17
2019-01-21T01:52:24.851Z,30.70
2019-01-21T01:54:55.226Z,31.70
2019-01-21T01:57:25.738Z,31.43
2019-01-21T01:59:57.135Z,28.63
2019-01-21T02:02:28.327Z,29.70
2019-01-21T02:05:18.146Z,33.43
2019-01-21T02:07:48.652Z,30.47
2019-01-21T02:10:19.031Z,32.57
2019-01-21T02:12:49.646Z,30.23
2019-01-21T02:15:20.742Z,30.40
2019-01-21T02:17:54.234Z,30.00
2019-01-21T02:20:26.656Z,30.67
2019-01-21T02:22:56.977Z,31.70
2019-01-21T02:25:31.031Z,30.70
2019-01-21T02:28:27.700Z,31.97
2019-01-21T02:31:36.106Z,29.40
2019-01-21T02:34:20.144Z,30.07
2019-01-21T02:40:11.689Z,28.37
2019-01-21T02:43:05.437Z,27.80
2019-01-21T02:45:42.264Z,29.97
2019-01-21T02:48:38.260Z,28.30
2019-01-21T02:51:25.487Z,29.00
2019-01-21T02:54:00.738Z,31.30
2019-01-21T02:56:42.972Z,29.27
2019-01-21T02:59:18.704Z,31.60
2019-01-21T03:02:07.352Z,28.93
2019-01-21T03:05:03.955Z,30.47
2019-01-21T03:07:44.841Z,33.07
2019-01-21T03:10:31.629Z,28.87
2019-01-21T03:13:35.609Z,27.70
2019-01-21T03:16:11.761Z,31.07
2019-01-21T03:18:49.572Z,32.17
2019-01-21T03:21:40.380Z,30.10
2019-01-21T03:24:24.000Z,31.77
2019-01-21T03:27:12.231Z,28.77
2019-01-21T03:29:56.070Z,29.03
2019-01-21T03:32:46.541Z,29.53
2019-01-21T03:35:22.848Z,30.73
2019-01-21T03:38:10.036Z,30.03
2019-01-21T03:40:46.074Z,28.70
2019-01-21T03:43:43.576Z,31.03
2019-01-21T03:49:41.675Z,29.50
2019-01-21T03:52:34.821Z,30.30
2019-01-21T03:55:05.208Z,29.57
2019-01-21T03:57:46.918Z,31.27
2019-01-21T04:00:18.063Z,30.10
2019-01-21T04:03:03.018Z,28.90
2019-01-21T04:06:05.501Z,28.60
2019-01-21T04:08:42.025Z,30.37
2019-01-21T04:11:33.809Z,32.47
2019-01-21T04:14:18.873Z,30.33
2019-01-21T04:20:11.329Z,30.77
2019-01-21T04:22:47.566Z,28.83
2019-01-21T04:25:25.318Z,30.83
2019-01-21T04:28:09.456Z,29.87
2019-01-21T04:30:53.046Z,29.90
2019-01-21T04:33:37.846Z,29.37
2019-01-21T04:36:56.923Z,29.63
2019-01-21T04:39:36.192Z,29.47
2019-01-21T04:42:38.491Z,30.70
2019-01-21T04:45:34.917Z,29.80
2019-01-21T04:51:21.892Z,32.43
2019-01-21T04:54:11.629Z,30.37
2019-01-21T04:57:09.125Z,31.77
2019-01-21T04:59:56.574Z,29.37
2019-01-21T05:02:33.085Z,30.43
2019-01-21T05:05:28.909Z,31.33
2019-01-21T05:08:20.098Z,29.43
2019-01-21T05:11:24.626Z,27.97
2019-01-21T05:14:27.097Z,28.83
2019-01-21T05:17:26.341Z,28.20
2019-01-21T05:20:13.176Z,28.87
2019-01-21T05:22:50.893Z,28.60
2019-01-21T05:25:27.254Z,29.07
2019-01-21T05:28:03.520Z,26.47
2019-01-21T05:30:50.236Z,29.03
2019-01-21T05:33:43.869Z,31.20
2019-01-21T05:36:28.022Z,29.17
2019-01-21T05:39:10.137Z,28.63
2019-01-21T05:42:03.751Z,29.87
2019-01-21T05:44:45.889Z,28.33
2019-01-21T05:47:55.082Z,30.20
2019-01-21T05:50:46.145Z,27.53
2019-01-21T05:53:46.085Z,29.50
2019-01-21T05:56:33.020Z,27.17
2019-01-21T05:59:31.300Z,28.53
2019-01-21T06:05:15.361Z,29.87
2019-01-21T06:08:06.784Z,30.53
2019-01-21T06:10:43.348Z,29.30
2019-01-21T06:13:55.937Z,27.47
2019-01-21T06:16:45.076Z,29.43
2019-01-21T06:19:21.316Z,30.57
2019-01-21T06:22:30.060Z,30.50
2019-01-21T06:28:29.686Z,26.37
2019-01-21T06:31:20.043Z,28.03
2019-01-21T06:34:19.342Z,30.77
2019-01-21T06:37:12.645Z,28.00
2019-01-21T06:39:51.305Z,31.20
2019-01-21T06:42:58.300Z,29.77
2019-01-21T06:45:57.429Z,21.17
2019-01-21T06:48:34.276Z,26.40
2019-01-21T06:51:10.227Z,30.57
2019-01-21T06:56:47.532Z,28.93
2019-01-21T07:00:04.836Z,30.93
2019-01-21T07:02:59.311Z,30.80
2019-01-21T07:05:49.660Z,29.17
2019-01-21T07:08:43.174Z,29.43
2019-01-21T07:11:19.249Z,29.30
2019-01-21T07:14:09.867Z,29.77
2019-01-21T07:16:51.097Z,32.97
2019-01-21T07:19:39.259Z,29.37
2019-01-21T07:22:15.532Z,28.33
2019-01-21T07:25:12.337Z,27.50
2019-01-21T07:28:29.860Z,28.20
2019-01-21T07:31:19.998Z,30.23
2019-01-21T07:34:01.016Z,29.87
2019-01-21T07:36:47.909Z,29.67
2019-01-21T07:39:18.302Z,31.67
2019-01-21T07:41:56.094Z,31.27
2019-01-21T07:44:48.182Z,29.47
2019-01-21T07:47:57.058Z,31.67
2019-01-21T07:50:44.697Z,28.40
2019-01-21T07:53:42.411Z,29.70
2019-01-21T07:56:29.029Z,28.67
2019-01-21T08:02:07.967Z,34.13
2019-01-21T08:05:13.383Z,28.47
2019-01-21T08:08:09.361Z,30.90
2019-01-21T08:11:15.781Z,29.87
2019-01-21T08:13:54.108Z,30.13
2019-01-21T08:17:04.269Z,33.50
2019-01-21T08:19:52.202Z,28.13
2019-01-21T08:22:33.478Z,29.10
2019-01-21T08:25:36.047Z,32.77
2019-01-21T08:28:32.523Z,30.43
2019-01-21T08:31:11.499Z,30.20
2019-01-21T08:34:02.972Z,30.43
2019-01-21T08:37:12.261Z,29.43
2019-01-21T08:42:50.829Z,32.03
2019-01-21T08:45:49.963Z,28.93
2019-01-21T08:48:46.116Z,32.73
2019-01-21T08:51:35.669Z,29.33
2019-01-21T08:54:12.718Z,29.43
2019-01-21T08:57:05.770Z,36.27
2019-01-21T09:03:35.587Z,29.80
2019-01-21T09:06:22.619Z,31.83
2019-01-21T09:09:00.664Z,30.50
2019-01-21T09:11:56.086Z,30.03
2019-01-21T09:14:37.051Z,32.37
2019-01-21T09:17:40.355Z,28.60
2019-01-21T09:20:22.487Z,31.10
2019-01-21T09:23:10.627Z,31.60
2019-01-21T09:25:58.027Z,31.97
2019-01-21T09:28:51.424Z,33.43
2019-01-21T09:31:48.162Z,36.53
2019-01-21T09:34:21.407Z,28.93
2019-01-21T09:36:52.854Z,29.97
2019-01-21T09:39:34.454Z,32.60
2019-01-21T09:42:34.213Z,31.50
2019-01-21T09:45:09.632Z,32.40
2019-01-21T09:47:39.330Z,30.63
2019-01-21T09:50:09.709Z,35.73
2019-01-21T09:52:40.863Z,33.03
2019-01-21T09:55:11.314Z,35.70
2019-01-21T09:57:41.696Z,30.90
2019-01-21T10:00:12.926Z,32.07
2019-01-21T10:02:43.236Z,30.93
2019-01-21T10:05:13.554Z,32.47
2019-01-21T10:07:49.029Z,33.77
2019-01-21T10:10:45.472Z,33.37
2019-01-21T10:13:18.422Z,32.17
2019-01-21T10:16:26.633Z,30.77
2019-01-21T10:19:25.641Z,32.47
2019-01-21T10:22:18.665Z,31.60
2019-01-21T10:24:49.059Z,31.57
2019-01-21T10:27:58.623Z,33.27
2019-01-21T10:30:39.291Z,30.97
2019-01-21T10:33:20.864Z,34.20
2019-01-21T10:36:04.871Z,33.50
2019-01-21T10:39:10.206Z,32.87
2019-01-21T10:41:50.333Z,30.13
2019-01-21T10:44:23.423Z,31.03
2019-01-21T10:47:28.262Z,30.80
2019-01-21T10:50:15.590Z,29.97
2019-01-21T10:56:20.251Z,30.33
2019-01-21T10:59:22.249Z,29.40
2019-01-21T11:02:00.275Z,30.47
2019-01-21T11:04:53.098Z,31.37
2019-01-21T11:07:40.428Z,31.43
2019-01-21T11:10:39.562Z,32.20
2019-01-21T11:13:37.290Z,29.03
2019-01-21T11:16:21.481Z,33.37
2019-01-21T11:18:59.811Z,29.10
2019-01-21T11:24:41.052Z,32.27
2019-01-21T11:27:17.447Z,32.17
2019-01-21T11:29:53.285Z,30.03
2019-01-21T11:32:23.678Z,33.87
2019-01-21T11:35:07.891Z,32.93
2019-01-21T11:37:55.066Z,34.70
2019-01-21T11:43:36.293Z,31.23
2019-01-21T11:46:14.287Z,36.30
2019-01-21T11:48:54.882Z,30.97
2019-01-21T11:51:39.346Z,31.43
2019-01-21T11:54:33.479Z,30.70
2019-01-21T11:57:41.893Z,33.50
2019-01-21T12:01:06.252Z,30.77
2019-01-21T12:06:34.885Z,33.60
2019-01-21T12:09:14.877Z,34.33
2019-01-21T12:11:58.569Z,33.90
2019-01-21T12:15:07.097Z,32.83
2019-01-21T12:17:44.444Z,34.73
2019-01-21T12:20:20.934Z,32.70
2019-01-21T12:22:56.558Z,31.00
2019-01-21T12:25:44.475Z,33.37
2019-01-21T12:28:22.598Z,32.17
2019-01-21T12:31:06.449Z,31.70
2019-01-21T12:33:54.514Z,35.07
2019-01-21T12:36:24.974Z,32.40
2019-01-21T12:39:24.337Z,32.83
2019-01-21T12:41:58.205Z,30.70
2019-01-21T12:44:46.293Z,33.27
2019-01-21T12:47:33.367Z,31.80
2019-01-21T12:53:41.276Z,29.93
2019-01-21T12:56:18.775Z,30.63
2019-01-21T12:59:06.172Z,30.40
2019-01-21T13:01:39.047Z,30.63
2019-01-21T13:04:09.502Z,28.13
2019-01-21T13:06:58.623Z,31.80
2019-01-21T13:10:08.721Z,31.27
2019-01-21T13:13:24.079Z,27.30
2019-01-21T13:16:26.701Z,27.23
2019-01-21T13:19:46.879Z,30.73
2019-01-21T13:22:41.959Z,31.07
2019-01-21T13:25:45.432Z,31.50
2019-01-21T13:28:35.768Z,32.83
2019-01-21T13:31:26.414Z,30.20
2019-01-21T13:34:20.261Z,28.60
2019-01-21T13:40:43.063Z,31.07
2019-01-21T13:43:45.698Z,28.67
2019-01-21T13:46:32.892Z,27.40
2019-01-21T13:49:36.110Z,24.77
2019-01-21T13:52:32.383Z,26.27
2019-01-21T13:55:23.240Z,26.70
2019-01-21T13:58:29.547Z,29.30
2019-01-21T14:01:21.993Z,27.43
2019-01-21T14:03:55.493Z,27.63
2019-01-21T14:06:57.053Z,26.67
2019-01-21T14:09:44.958Z,29.23
2019-01-21T14:12:35.099Z,28.30
2019-01-21T14:15:22.663Z,28.30
2019-01-21T14:21:18.508Z,31.03
2019-01-21T14:24:15.933Z,26.20
2019-01-21T14:27:29.940Z,29.67
2019-01-21T14:30:26.282Z,28.73
2019-01-21T14:33:18.991Z,26.17
2019-01-21T14:35:53.095Z,29.97
2019-01-21T14:39:08.573Z,28.93
2019-01-21T14:41:58.701Z,30.53
2019-01-21T14:44:52.783Z,28.53
2019-01-21T14:47:34.193Z,24.13
2019-01-21T14:50:23.977Z,27.30
2019-01-21T14:53:25.413Z,26.83
2019-01-21T14:56:12.794Z,27.50
2019-01-21T15:01:47.342Z,27.97
2019-01-21T15:04:29.012Z,26.60
2019-01-21T15:07:19.851Z,25.47
2019-01-21T15:09:58.439Z,27.73
2019-01-21T15:12:34.542Z,26.10
2019-01-21T15:15:24.674Z,27.07
2019-01-21T15:18:02.902Z,29.23
2019-01-21T15:20:48.094Z,27.50
2019-01-21T15:23:54.390Z,26.03
2019-01-21T15:29:34.324Z,28.70
2019-01-21T15:32:18.317Z,25.07
2019-01-21T15:35:08.186Z,27.73
2019-01-21T15:37:48.085Z,22.70
2019-01-21T15:40:56.730Z,27.63
2019-01-21T15:43:32.369Z,28.57
2019-01-21T15:46:24.839Z,27.57
2019-01-21T15:49:02.690Z,28.03
2019-01-21T15:52:10.543Z,28.80
2019-01-21T15:54:49.038Z,28.57
2019-01-21T16:00:24.188Z,27.10
2019-01-21T16:03:14.119Z,28.33
2019-01-21T16:05:57.048Z,26.67
2019-01-21T16:09:02.088Z,29.13
2019-01-21T16:11:54.280Z,28.17
2019-01-21T16:14:24.858Z,23.03
2019-01-21T16:16:58.348Z,30.47
2019-01-21T16:19:29.660Z,29.83
2019-01-21T16:22:14.018Z,31.63
2019-01-21T16:24:52.013Z,31.10
2019-01-21T16:27:30.249Z,29.20
2019-01-21T16:30:06.087Z,32.87
2019-01-21T16:32:36.476Z,32.27
2019-01-21T16:35:17.684Z,31.10
2019-01-21T16:37:53.051Z,31.17
2019-01-21T16:40:43.842Z,30.27
2019-01-21T16:43:14.210Z,29.50
2019-01-21T16:45:44.582Z,30.50
2019-01-21T16:48:14.904Z,30.03
2019-01-21T16:50:45.338Z,29.53
2019-01-21T16:53:15.663Z,30.57
2019-01-21T16:55:45.984Z,29.23
2019-01-21T16:58:16.425Z,30.80
2019-01-21T17:00:46.867Z,30.43
2019-01-21T17:03:17.438Z,30.60
2019-01-21T17:05:48.011Z,31.57
2019-01-21T17:08:18.440Z,33.20
2019-01-21T17:10:48.829Z,32.17
2019-01-21T17:13:20.234Z,32.03
2019-01-21T17:15:51.681Z,31.30
2019-01-21T17:18:22.069Z,37.33
2019-01-21T17:20:52.643Z,42.23
2019-01-21T17:23:23.861Z,46.70
2019-01-21T17:25:54.251Z,38.30
2019-01-21T17:28:24.648Z,39.47
2019-01-21T17:30:55.739Z,35.77
2019-01-21T17:33:28.769Z,37.40
2019-01-21T17:35:59.217Z,32.77
2019-01-21T17:38:30.381Z,40.13
2019-01-21T17:41:01.004Z,40.63
2019-01-21T17:43:33.266Z,38.33
2019-01-21T17:46:02.533Z,33.33
2019-01-21T17:48:32.969Z,34.80
2019-01-21T17:51:03.400Z,36.60
2019-01-21T17:53:33.777Z,41.27
2019-01-21T17:56:04.095Z,39.17
2019-01-21T17:58:34.525Z,41.90
2019-01-21T18:01:04.904Z,35.97
2019-01-21T18:03:35.286Z,33.23
2019-01-21T18:06:05.691Z,35.97
2019-01-21T18:08:36.081Z,34.43
2019-01-21T18:11:06.460Z,36.83
2019-01-21T18:13:37.922Z,49.43
2019-01-21T18:16:08.297Z,49.50
2019-01-21T18:18:39.451Z,52.23
2019-01-21T18:21:09.837Z,57.00
2019-01-21T18:23:40.219Z,53.33
2019-01-21T18:26:10.601Z,49.53
2019-01-21T18:28:41.046Z,48.60
2019-01-21T18:31:11.488Z,43.23
2019-01-21T18:33:42.628Z,41.57
2019-01-21T18:36:13.989Z,43.17
2019-01-21T18:38:44.432Z,46.03
2019-01-21T18:41:15.032Z,43.13
2019-01-21T18:43:46.173Z,42.37
2019-01-21T18:46:17.369Z,39.90
2019-01-21T18:48:54.921Z,37.40
2019-01-21T18:51:26.071Z,42.93
2019-01-21T18:53:57.212Z,37.80
2019-01-21T18:56:28.406Z,38.50
2019-01-21T18:59:01.855Z,34.90
2019-01-21T19:01:33.000Z,41.43
2019-01-21T19:04:03.327Z,39.03
2019-01-21T19:06:35.686Z,37.20
2019-01-21T19:09:06.833Z,34.90
2019-01-21T19:11:37.937Z,33.73
2019-01-21T19:14:08.267Z,34.33
2019-01-21T19:16:38.839Z,34.20
2019-01-21T19:19:10.035Z,34.23
2019-01-21T19:21:59.727Z,32.37
2019-01-21T19:24:30.297Z,40.37
2019-01-21T19:27:00.677Z,33.03
2019-01-21T19:29:31.058Z,34.30
2019-01-21T19:32:01.636Z,37.13
2019-01-21T19:34:37.171Z,36.20
2019-01-21T19:37:27.944Z,33.93
2019-01-21T19:39:58.385Z,39.37
2019-01-21T19:42:28.846Z,34.93
2019-01-21T19:44:59.225Z,35.73
2019-01-21T19:47:29.669Z,40.60
2019-01-21T19:49:59.965Z,36.97
2019-01-21T19:52:30.334Z,34.73
2019-01-21T19:55:00.779Z,34.97
2019-01-21T19:57:31.242Z,36.30
2019-01-21T20:00:02.328Z,33.90
2019-01-21T20:02:34.809Z,35.67
2019-01-21T20:05:07.236Z,36.23
2019-01-21T20:07:38.376Z,40.33
2019-01-21T20:12:53.733Z,34.77
2019-01-21T20:15:24.172Z,39.33
2019-01-21T20:17:54.618Z,41.03
2019-01-21T20:20:32.437Z,40.73
2019-01-21T20:23:03.623Z,35.33
2019-01-21T20:25:34.011Z,37.03
2019-01-21T20:28:05.151Z,36.73
2019-01-21T20:30:36.306Z,34.40
2019-01-21T20:33:06.725Z,39.40
2019-01-21T20:35:37.113Z,40.07
2019-01-21T20:38:07.495Z,40.83
2019-01-21T20:40:38.129Z,40.20
2019-01-21T20:43:08.508Z,38.30
2019-01-21T20:45:38.893Z,39.93
2019-01-21T20:48:09.321Z,35.83
2019-01-21T20:50:39.773Z,36.73
2019-01-21T20:53:29.440Z,37.00
2019-01-21T20:56:01.071Z,35.27
2019-01-21T20:58:31.511Z,39.03
2019-01-21T21:01:02.077Z,37.03
2019-01-21T21:03:32.518Z,35.93
2019-01-21T21:06:02.907Z,42.60
2019-01-21T21:08:41.029Z,36.17
2019-01-21T21:11:14.656Z,36.13
2019-01-21T21:13:45.036Z,38.77
2019-01-21T21:16:15.395Z,41.97
2019-01-21T21:18:45.716Z,36.73
2019-01-21T21:21:16.103Z,42.10
2019-01-21T21:23:46.538Z,38.73
2019-01-21T21:26:17.116Z,37.40
2019-01-21T21:28:47.685Z,35.87
2019-01-21T21:31:18.137Z,35.70
2019-01-21T21:33:50.672Z,37.17
2019-01-21T21:36:20.961Z,37.37
2019-01-21T21:38:51.343Z,37.07
2019-01-21T21:41:23.757Z,42.10
2019-01-21T21:43:54.137Z,38.17
2019-01-21T21:46:24.522Z,36.30
2019-01-21T21:48:55.117Z,38.20
2019-01-21T21:51:26.711Z,38.37
2019-01-21T21:53:57.293Z,40.13
2019-01-21T21:56:27.734Z,39.90
2019-01-21T21:58:58.111Z,40.20
2019-01-21T22:01:28.746Z,36.47
2019-01-21T22:03:59.131Z,39.90
2019-01-21T22:06:36.735Z,39.13
2019-01-21T22:09:07.119Z,37.17
2019-01-21T22:11:37.586Z,37.53
2019-01-21T22:14:09.045Z,39.53
2019-01-21T22:16:40.179Z,36.87
2019-01-21T22:19:11.775Z,34.93
2019-01-21T22:21:42.145Z,37.43
2019-01-21T22:24:12.550Z,42.03
2019-01-21T22:26:42.941Z,37.10
2019-01-21T22:29:13.506Z,37.13
2019-01-21T22:31:44.157Z,38.20
2019-01-21T22:34:14.529Z,38.20
2019-01-21T22:36:44.976Z,39.00
2019-01-21T22:39:16.173Z,35.80
2019-01-21T22:41:48.777Z,37.53
2019-01-21T22:44:19.158Z,40.87
2019-01-21T22:46:49.665Z,39.43
2019-01-21T22:49:20.171Z,39.53
2019-01-21T22:51:50.494Z,39.20
2019-01-21T22:54:20.945Z,37.50
2019-01-21T22:56:52.094Z,33.93
2019-01-21T22:59:23.249Z,38.37
2019-01-21T23:01:53.692Z,42.17
2019-01-21T23:04:24.067Z,36.57
2019-01-21T23:06:54.524Z,37.87
2019-01-21T23:09:24.903Z,38.23
2019-01-21T23:11:55.318Z,36.20
2019-01-21T23:14:27.742Z,37.30
2019-01-21T23:16:58.136Z,39.77
2019-01-21T23:19:28.568Z,39.30
2019-01-21T23:21:59.204Z,36.53
2019-01-21T23:24:29.580Z,38.23
2019-01-21T23:27:00.025Z,40.97
2019-01-21T23:29:30.414Z,39.03
2019-01-21T23:32:00.805Z,36.80
2019-01-21T23:34:31.250Z,40.17
2019-01-21T23:37:01.703Z,40.40
2019-01-21T23:39:32.323Z,35.83
2019-01-21T23:42:03.668Z,39.87
2019-01-21T23:44:34.797Z,39.47
2019-01-21T23:47:05.241Z,37.80
2019-01-21T23:49:35.689Z,39.70
2019-01-21T23:52:06.250Z,40.13
2019-01-21T23:54:36.630Z,42.23
2019-01-21T23:57:08.000Z,39.00
2019-01-21T23:59:38.393Z,43.40
